createdAt,value
2023-05-13T00:01:45.008Z,12.64
2023-05-13T00:04:13.753Z,12.57
2023-05-13T00:06:42.251Z,12.55
2023-05-13T00:09:10.883Z,12.36
2023-05-13T00:11:41.271Z,12.36
2023-05-13T00:14:10.905Z,12.29
2023-05-13T00:16:39.809Z,12.24
2023-05-13T00:19:08.330Z,12.25
2023-05-13T00:21:37.157Z,12.30
2023-05-13T00:24:06.980Z,12.53
2023-05-13T00:26:35.423Z,12.59
2023-05-13T00:29:05.312Z,12.60
2023-05-13T00:31:34.090Z,12.51
2023-05-13T00:34:04.257Z,12.46
2023-05-13T00:36:32.849Z,12.36
2023-05-13T00:39:01.521Z,12.28
2023-05-13T00:41:29.935Z,12.22
2023-05-13T00:43:58.816Z,12.22
2023-05-13T00:46:33.415Z,12.27
2023-05-13T00:49:02.684Z,12.12
2023-05-13T00:51:32.556Z,12.06
2023-05-13T00:54:01.279Z,12.01
2023-05-13T00:56:29.646Z,11.91
2023-05-13T00:58:58.056Z,11.96
2023-05-13T01:01:49.080Z,11.90
2023-05-13T01:04:32.109Z,11.83
2023-05-13T01:07:13.444Z,11.78
2023-05-13T01:09:57.267Z,11.65
2023-05-13T01:12:33.612Z,11.53
2023-05-13T01:15:09.263Z,11.21
2023-05-13T01:17:49.509Z,11.54
2023-05-13T01:20:24.231Z,11.54
2023-05-13T01:22:54.586Z,11.60
2023-05-13T01:25:23.549Z,11.58
2023-05-13T01:27:52.450Z,11.56
2023-05-13T01:30:23.750Z,11.55
2023-05-13T01:32:54.858Z,11.50
2023-05-13T01:35:26.959Z,11.21
2023-05-13T01:37:58.660Z,11.45
2023-05-13T01:40:32.876Z,11.32
2023-05-13T01:43:07.941Z,11.21
2023-05-13T01:45:38.195Z,10.62
2023-05-13T01:48:07.276Z,11.15
2023-05-13T01:50:46.166Z,11.16
2023-05-13T01:53:16.031Z,11.13
2023-05-13T01:55:44.739Z,11.07
2023-05-13T01:58:13.109Z,11.00
2023-05-13T02:00:42.132Z,10.92
2023-05-13T02:03:10.937Z,10.91
2023-05-13T02:05:39.712Z,10.94
2023-05-13T02:08:10.011Z,10.95
2023-05-13T02:10:42.091Z,10.98
2023-05-13T02:13:11.175Z,10.85
2023-05-13T02:15:41.201Z,10.90
2023-05-13T02:18:10.011Z,10.86
2023-05-13T02:20:38.777Z,10.87
2023-05-13T02:23:08.046Z,10.85
2023-05-13T02:25:36.747Z,10.76
2023-05-13T02:28:06.770Z,10.77
2023-05-13T02:30:35.406Z,10.64
2023-05-13T02:33:04.442Z,10.62
2023-05-13T02:35:32.831Z,10.59
2023-05-13T02:38:04.031Z,10.59
2023-05-13T02:40:34.059Z,10.74
2023-05-13T02:43:02.992Z,10.68
2023-05-13T02:45:46.989Z,10.58
2023-05-13T02:48:16.116Z,10.48
2023-05-13T02:50:44.922Z,10.48
2023-05-13T02:53:13.777Z,10.41
2023-05-13T02:55:48.113Z,10.35
2023-05-13T02:58:17.296Z,10.25
2023-05-13T03:00:48.054Z,10.20
2023-05-13T03:03:16.861Z,10.08
2023-05-13T03:05:45.715Z,9.96
2023-05-13T03:08:14.617Z,9.89
2023-05-13T03:10:43.061Z,9.86
2023-05-13T03:13:11.795Z,9.88
2023-05-13T03:15:41.526Z,9.88
2023-05-13T03:18:13.599Z,9.80
2023-05-13T03:20:42.609Z,9.73
2023-05-13T03:23:11.446Z,9.68
2023-05-13T03:25:39.923Z,9.61
2023-05-13T03:28:10.475Z,9.62
2023-05-13T03:30:44.152Z,9.67
2023-05-13T03:33:18.650Z,9.65
2023-05-13T03:35:49.928Z,9.65
2023-05-13T03:38:24.307Z,9.67
2023-05-13T03:40:54.325Z,9.65
2023-05-13T03:43:23.116Z,9.65
2023-05-13T03:45:57.722Z,9.69
2023-05-13T03:48:27.530Z,9.60
2023-05-13T03:50:59.353Z,9.76
2023-05-13T03:53:28.445Z,9.80
2023-05-13T03:55:57.574Z,9.81
2023-05-13T03:58:26.268Z,9.88
2023-05-13T04:00:54.971Z,9.93
2023-05-13T04:03:23.917Z,9.89
2023-05-13T04:05:53.882Z,9.97
2023-05-13T04:08:22.359Z,10.04
2023-05-13T04:10:51.225Z,10.16
2023-05-13T04:13:20.765Z,10.18
2023-05-13T04:15:49.836Z,10.13
2023-05-13T04:18:18.530Z,10.27
2023-05-13T04:20:47.266Z,10.29
2023-05-13T04:23:17.071Z,10.14
2023-05-13T04:25:51.712Z,10.43
2023-05-13T04:28:20.840Z,10.47
2023-05-13T04:30:51.072Z,10.62
2023-05-13T04:33:19.533Z,10.62
2023-05-13T04:35:50.261Z,10.72
2023-05-13T04:38:20.436Z,10.82
2023-05-13T04:40:49.000Z,10.85
2023-05-13T04:43:23.418Z,10.87
2023-05-13T04:45:55.465Z,11.02
2023-05-13T04:48:23.940Z,11.10
2023-05-13T04:50:52.629Z,11.19
2023-05-13T04:53:23.155Z,11.31
2023-05-13T04:55:52.446Z,11.33
2023-05-13T04:58:20.874Z,11.39
2023-05-13T05:00:49.287Z,11.36
2023-05-13T05:03:17.706Z,11.33
2023-05-13T05:05:46.283Z,11.64
2023-05-13T05:08:16.221Z,11.75
2023-05-13T05:10:47.302Z,11.86
2023-05-13T05:13:16.758Z,12.06
2023-05-13T05:15:45.842Z,12.22
2023-05-13T05:18:16.157Z,12.47
2023-05-13T05:20:47.885Z,12.57
2023-05-13T05:23:18.965Z,12.64
2023-05-13T05:25:53.221Z,12.77
2023-05-13T05:28:30.047Z,12.90
2023-05-13T05:30:58.852Z,12.93
2023-05-13T05:33:29.882Z,13.04
2023-05-13T05:35:58.373Z,12.93
2023-05-13T05:38:26.833Z,13.04
2023-05-13T05:40:58.875Z,13.02
2023-05-13T05:43:27.703Z,13.07
2023-05-13T05:45:56.191Z,13.14
2023-05-13T05:48:24.968Z,13.20
2023-05-13T05:50:55.749Z,13.26
2023-05-13T05:53:28.687Z,13.33
2023-05-13T05:55:58.470Z,13.35
2023-05-13T05:58:27.899Z,13.32
2023-05-13T06:00:57.125Z,13.38
2023-05-13T06:03:25.933Z,13.45
2023-05-13T06:05:54.738Z,13.49
2023-05-13T06:08:29.871Z,13.52
2023-05-13T06:11:00.955Z,13.55
2023-05-13T06:13:29.529Z,13.58
2023-05-13T06:15:58.857Z,13.60
2023-05-13T06:18:27.806Z,13.62
2023-05-13T06:20:56.189Z,13.67
2023-05-13T06:23:24.652Z,13.65
2023-05-13T06:25:53.506Z,13.87
2023-05-13T06:28:23.307Z,13.96
2023-05-13T06:30:53.862Z,14.01
2023-05-13T06:33:22.583Z,14.07
2023-05-13T06:35:51.145Z,14.12
2023-05-13T06:38:22.972Z,14.17
2023-05-13T06:40:56.285Z,14.32
2023-05-13T06:43:32.740Z,14.38
2023-05-13T06:46:09.529Z,14.38
2023-05-13T06:48:38.364Z,14.39
2023-05-13T06:51:07.174Z,14.49
2023-05-13T06:53:36.029Z,14.51
2023-05-13T06:56:04.964Z,14.55
2023-05-13T06:58:34.754Z,14.34
2023-05-13T07:01:04.092Z,14.61
2023-05-13T07:03:32.870Z,14.65
2023-05-13T07:06:01.622Z,14.71
2023-05-13T07:08:30.021Z,14.83
2023-05-13T07:10:58.747Z,14.86
2023-05-13T07:13:27.597Z,15.00
2023-05-13T07:15:57.468Z,15.11
2023-05-13T07:18:26.279Z,15.13
2023-05-13T07:20:56.243Z,15.01
2023-05-13T07:23:25.083Z,14.96
2023-05-13T07:25:53.818Z,15.05
2023-05-13T07:28:22.250Z,15.18
2023-05-13T07:30:53.393Z,15.25
2023-05-13T07:33:23.181Z,15.22
2023-05-13T07:35:52.107Z,15.48
2023-05-13T07:38:20.690Z,15.54
2023-05-13T07:40:49.651Z,15.67
2023-05-13T07:43:23.702Z,15.75
2023-05-13T07:45:52.358Z,15.84
2023-05-13T07:48:24.556Z,15.93
2023-05-13T07:50:53.311Z,15.92
2023-05-13T07:53:22.110Z,15.90
2023-05-13T07:55:50.492Z,16.00
2023-05-13T07:58:20.316Z,15.64
2023-05-13T08:00:50.244Z,16.22
2023-05-13T08:03:19.079Z,16.29
2023-05-13T08:05:49.355Z,16.27
2023-05-13T08:08:18.220Z,16.26
2023-05-13T08:10:46.936Z,16.30
2023-05-13T08:13:15.646Z,16.38
2023-05-13T08:15:44.197Z,16.40
2023-05-13T08:18:12.583Z,16.44
2023-05-13T08:20:41.440Z,16.74
2023-05-13T08:23:11.569Z,16.86
2023-05-13T08:25:39.990Z,16.93
2023-05-13T08:28:08.404Z,16.90
2023-05-13T08:30:36.876Z,17.00
2023-05-13T08:33:05.493Z,16.83
2023-05-13T08:35:33.902Z,16.86
2023-05-13T08:38:03.800Z,17.10
2023-05-13T08:40:34.030Z,17.27
2023-05-13T08:43:04.442Z,17.31
2023-05-13T08:45:37.721Z,17.37
2023-05-13T08:48:08.909Z,17.38
2023-05-13T08:50:38.452Z,17.49
2023-05-13T08:53:08.733Z,17.60
2023-05-13T08:55:40.921Z,17.65
2023-05-13T08:58:09.692Z,17.78
2023-05-13T09:00:39.206Z,17.85
2023-05-13T09:03:08.068Z,18.04
2023-05-13T09:05:38.804Z,17.55
2023-05-13T09:08:10.621Z,18.14
2023-05-13T09:10:40.962Z,18.03
2023-05-13T09:13:09.351Z,18.36
2023-05-13T09:15:37.788Z,18.41
2023-05-13T09:18:08.476Z,18.27
2023-05-13T09:20:37.240Z,18.52
2023-05-13T09:23:09.434Z,18.63
2023-05-13T09:25:40.866Z,18.49
2023-05-13T09:28:09.698Z,18.72
2023-05-13T09:30:43.896Z,18.83
2023-05-13T09:33:17.195Z,18.88
2023-05-13T09:35:51.021Z,18.85
2023-05-13T09:38:21.668Z,18.92
2023-05-13T09:40:56.424Z,18.99
2023-05-13T09:43:27.078Z,19.11
2023-05-13T09:45:58.013Z,18.95
2023-05-13T09:48:28.607Z,19.17
2023-05-13T09:50:58.392Z,19.12
2023-05-13T09:53:27.990Z,19.16
2023-05-13T09:56:00.353Z,19.06
2023-05-13T09:58:31.037Z,19.36
2023-05-13T10:00:59.972Z,19.46
2023-05-13T10:03:31.808Z,19.42
2023-05-13T10:06:03.266Z,19.42
2023-05-13T10:08:32.523Z,19.29
2023-05-13T10:11:02.528Z,19.46
2023-05-13T10:13:33.406Z,19.32
2023-05-13T10:16:02.423Z,19.46
2023-05-13T10:18:32.041Z,19.45
2023-05-13T10:21:01.104Z,19.47
2023-05-13T10:23:31.717Z,19.62
2023-05-13T10:26:03.014Z,19.72
2023-05-13T10:28:32.718Z,19.73
2023-05-13T10:31:01.160Z,19.77
2023-05-13T10:33:29.826Z,19.59
2023-05-13T10:36:19.982Z,19.78
2023-05-13T10:39:51.815Z,19.75
2023-05-13T10:42:42.735Z,19.90
2023-05-13T10:45:12.082Z,19.92
2023-05-13T10:47:41.867Z,20.08
2023-05-13T10:50:25.469Z,20.19
2023-05-13T10:52:59.565Z,20.13
2023-05-13T10:55:28.741Z,20.07
2023-05-13T10:58:16.815Z,20.20
2023-05-13T11:00:46.592Z,20.29
2023-05-13T11:03:29.591Z,20.23
2023-05-13T11:06:16.619Z,19.85
2023-05-13T11:08:46.843Z,19.73
2023-05-13T11:11:34.060Z,19.66
2023-05-13T11:14:16.798Z,19.65
2023-05-13T11:16:54.243Z,19.85
2023-05-13T11:19:27.170Z,20.11
2023-05-13T11:21:57.907Z,19.84
2023-05-13T11:24:27.731Z,19.81
2023-05-13T11:26:59.120Z,19.64
2023-05-13T11:29:34.776Z,19.88
2023-05-13T11:32:05.469Z,20.21
2023-05-13T11:34:36.944Z,20.59
2023-05-13T11:37:11.233Z,20.74
2023-05-13T11:39:41.926Z,20.82
2023-05-13T11:42:12.110Z,20.89
2023-05-13T11:44:48.164Z,21.04
2023-05-13T11:47:26.370Z,21.49
2023-05-13T11:49:55.870Z,21.48
2023-05-13T11:52:24.292Z,21.70
2023-05-13T11:54:55.316Z,21.98
2023-05-13T11:57:26.249Z,22.37
2023-05-13T11:59:59.874Z,22.79
2023-05-13T12:02:31.026Z,22.88
2023-05-13T12:05:04.368Z,23.03
2023-05-13T12:07:33.630Z,23.03
2023-05-13T12:10:06.090Z,23.06
2023-05-13T12:12:39.084Z,22.92
2023-05-13T12:15:13.291Z,22.78
2023-05-13T12:17:42.709Z,22.99
2023-05-13T12:20:14.250Z,23.10
2023-05-13T12:22:57.957Z,23.39
2023-05-13T12:25:45.305Z,23.67
2023-05-13T12:28:19.764Z,23.72
2023-05-13T12:30:56.318Z,23.47
2023-05-13T12:33:26.802Z,23.19
2023-05-13T12:36:16.342Z,23.22
2023-05-13T12:39:00.661Z,23.41
2023-05-13T12:41:31.793Z,23.35
2023-05-13T12:44:05.822Z,23.40
2023-05-13T12:46:36.051Z,23.79
2023-05-13T12:49:07.056Z,23.98
2023-05-13T12:51:35.732Z,24.50
2023-05-13T12:54:04.176Z,24.53
2023-05-13T12:56:32.831Z,24.64
2023-05-13T12:59:01.701Z,24.57
2023-05-13T13:01:30.231Z,24.37
2023-05-13T13:04:00.344Z,24.13
2023-05-13T13:06:29.045Z,23.85
2023-05-13T13:08:57.490Z,23.53
2023-05-13T13:11:25.912Z,23.45
2023-05-13T13:13:54.346Z,23.61
2023-05-13T13:16:23.232Z,23.74
2023-05-13T13:18:53.365Z,24.05
2023-05-13T13:21:25.413Z,24.59
2023-05-13T13:23:53.833Z,24.96
2023-05-13T13:26:23.172Z,25.06
2023-05-13T13:28:51.630Z,25.26
2023-05-13T13:31:20.294Z,25.40
2023-05-13T13:33:48.774Z,25.68
2023-05-13T13:36:17.156Z,25.99
2023-05-13T13:39:01.802Z,26.13
2023-05-13T13:41:30.254Z,26.01
2023-05-13T13:43:58.673Z,25.89
2023-05-13T13:46:27.186Z,25.90
2023-05-13T13:48:55.657Z,25.67
2023-05-13T13:51:24.085Z,25.13
2023-05-13T13:53:52.535Z,24.67
2023-05-13T13:56:22.351Z,24.06
2023-05-13T13:58:50.776Z,23.23
2023-05-13T14:01:19.700Z,22.05
2023-05-13T14:03:51.857Z,21.06
2023-05-13T14:06:20.812Z,20.12
2023-05-13T14:08:51.041Z,18.72
2023-05-13T14:11:20.819Z,17.65
2023-05-13T14:13:51.794Z,17.33
2023-05-13T14:16:20.244Z,17.53
2023-05-13T14:18:48.856Z,17.90
2023-05-13T14:21:18.325Z,18.20
2023-05-13T14:23:46.769Z,18.55
2023-05-13T14:26:15.705Z,18.89
2023-05-13T14:28:46.533Z,19.10
2023-05-13T14:31:14.998Z,19.48
2023-05-13T14:33:43.504Z,19.74
2023-05-13T14:36:16.069Z,20.04
2023-05-13T14:38:44.664Z,20.43
2023-05-13T14:41:19.687Z,20.69
2023-05-13T14:43:49.537Z,21.24
2023-05-13T14:46:18.234Z,21.64
2023-05-13T14:48:46.598Z,22.11
2023-05-13T14:51:15.001Z,22.41
2023-05-13T14:53:44.377Z,22.58
2023-05-13T14:56:13.188Z,22.36
2023-05-13T14:58:42.307Z,22.11
2023-05-13T15:01:12.383Z,21.79
2023-05-13T15:03:40.976Z,21.41
2023-05-13T15:06:09.908Z,21.23
2023-05-13T15:08:38.772Z,20.99
2023-05-13T15:11:07.897Z,20.70
2023-05-13T15:13:37.305Z,20.48
2023-05-13T15:16:07.384Z,20.22
2023-05-13T15:18:37.151Z,19.35
2023-05-13T15:21:05.678Z,19.33
2023-05-13T15:23:34.666Z,19.11
2023-05-13T15:26:03.437Z,19.19
2023-05-13T15:28:31.842Z,19.44
2023-05-13T15:31:01.153Z,19.69
2023-05-13T15:33:31.066Z,19.86
2023-05-13T15:36:01.417Z,20.01
2023-05-13T15:38:29.875Z,20.14
2023-05-13T15:40:59.294Z,20.19
2023-05-13T15:43:28.339Z,20.10
2023-05-13T15:45:58.859Z,20.12
2023-05-13T15:48:27.728Z,20.20
2023-05-13T15:50:56.236Z,20.14
2023-05-13T15:53:26.012Z,20.11
2023-05-13T15:55:54.743Z,20.04
2023-05-13T15:58:23.277Z,20.03
2023-05-13T16:00:51.694Z,19.83
2023-05-13T16:03:20.061Z,19.66
2023-05-13T16:05:48.546Z,19.43
2023-05-13T16:08:17.062Z,19.15
2023-05-13T16:10:46.853Z,19.08
2023-05-13T16:13:15.672Z,18.95
2023-05-13T16:15:44.120Z,19.04
2023-05-13T16:18:12.573Z,19.21
2023-05-13T16:20:41.088Z,19.04
2023-05-13T16:23:10.102Z,18.72
2023-05-13T16:25:39.824Z,19.14
2023-05-13T16:28:10.109Z,18.99
2023-05-13T16:30:39.490Z,18.81
2023-05-13T16:33:09.658Z,18.74
2023-05-13T16:35:38.400Z,18.68
2023-05-13T16:38:07.167Z,18.54
2023-05-13T16:40:35.902Z,18.50
2023-05-13T16:43:10.058Z,18.18
2023-05-13T16:45:42.571Z,18.27
2023-05-13T16:48:11.145Z,18.24
2023-05-13T16:50:40.342Z,18.19
2023-05-13T16:53:09.059Z,18.14
2023-05-13T16:55:37.798Z,18.22
2023-05-13T16:58:06.601Z,18.43
2023-05-13T17:00:35.022Z,18.57
2023-05-13T17:03:05.315Z,18.72
2023-05-13T17:05:33.927Z,18.59
2023-05-13T17:08:03.910Z,18.78
2023-05-13T17:10:32.319Z,18.90
2023-05-13T17:13:01.110Z,18.97
2023-05-13T17:15:29.871Z,19.12
2023-05-13T17:17:58.331Z,19.12
2023-05-13T17:20:28.257Z,19.01
2023-05-13T17:22:56.973Z,19.21
2023-05-13T17:25:25.450Z,19.30
2023-05-13T17:27:54.123Z,18.97
2023-05-13T17:30:23.058Z,18.59
2023-05-13T17:32:51.639Z,18.43
2023-05-13T17:35:23.401Z,18.21
2023-05-13T17:37:53.244Z,17.89
2023-05-13T17:40:22.365Z,17.79
2023-05-13T17:42:52.822Z,17.57
2023-05-13T17:45:23.079Z,17.11
2023-05-13T17:47:52.016Z,17.07
2023-05-13T17:50:21.238Z,16.83
2023-05-13T17:52:52.097Z,16.56
2023-05-13T17:55:22.576Z,16.35
2023-05-13T17:57:53.129Z,16.18
2023-05-13T18:00:22.598Z,16.05
2023-05-13T18:02:51.456Z,15.86
2023-05-13T18:05:21.418Z,15.78
2023-05-13T18:07:52.891Z,15.66
2023-05-13T18:10:21.808Z,15.51
2023-05-13T18:12:51.749Z,15.35
2023-05-13T18:15:20.839Z,15.16
2023-05-13T18:17:49.622Z,14.95
2023-05-13T18:20:18.906Z,14.56
2023-05-13T18:22:47.750Z,14.56
2023-05-13T18:25:18.037Z,14.38
2023-05-13T18:27:46.780Z,14.23
2023-05-13T18:30:17.507Z,13.44
2023-05-13T18:32:46.385Z,13.98
2023-05-13T18:35:16.119Z,13.83
2023-05-13T18:37:44.537Z,12.85
2023-05-13T18:40:13.918Z,13.55
2023-05-13T18:42:43.794Z,13.39
2023-05-13T18:45:12.762Z,13.23
2023-05-13T18:47:41.501Z,13.12
2023-05-13T18:50:11.996Z,12.83
2023-05-13T18:52:40.784Z,12.93
2023-05-13T18:55:12.430Z,12.88
2023-05-13T18:57:41.439Z,12.81
2023-05-13T19:00:12.598Z,12.38
2023-05-13T19:02:41.542Z,12.60
2023-05-13T19:05:10.982Z,12.51
2023-05-13T19:07:39.703Z,12.46
2023-05-13T19:10:08.989Z,12.29
2023-05-13T19:12:37.742Z,12.37
2023-05-13T19:15:07.493Z,12.26
2023-05-13T19:17:40.270Z,12.29
2023-05-13T19:20:11.104Z,12.55
2023-05-13T19:22:40.251Z,12.66
2023-05-13T19:25:09.650Z,12.83
2023-05-13T19:27:38.852Z,12.80
2023-05-13T19:30:09.651Z,12.71
2023-05-13T19:32:39.527Z,12.42
2023-05-13T19:35:09.381Z,12.68
2023-05-13T19:37:38.082Z,12.70
2023-05-13T19:40:08.226Z,12.64
2023-05-13T19:42:37.183Z,12.58
2023-05-13T19:45:06.548Z,12.56
2023-05-13T19:47:35.664Z,12.62
2023-05-13T19:50:07.016Z,12.38
2023-05-13T19:52:35.956Z,12.58
2023-05-13T19:55:05.084Z,12.54
2023-05-13T19:57:33.716Z,12.48
2023-05-13T20:00:02.235Z,12.46
2023-05-13T20:02:30.981Z,12.45
2023-05-13T20:04:59.554Z,12.44
2023-05-13T20:07:29.430Z,12.46
2023-05-13T20:09:58.167Z,12.55
2023-05-13T20:12:27.180Z,12.64
2023-05-13T20:14:58.089Z,12.73
2023-05-13T20:17:27.188Z,12.15
2023-05-13T20:19:56.124Z,12.85
2023-05-13T20:22:24.903Z,12.90
2023-05-13T20:24:54.913Z,12.90
2023-05-13T20:27:23.395Z,12.93
2023-05-13T20:29:52.002Z,12.97
2023-05-13T20:32:24.854Z,12.69
2023-05-13T20:34:54.537Z,13.00
2023-05-13T20:37:24.128Z,13.00
2023-05-13T20:39:54.398Z,13.00
2023-05-13T20:42:25.423Z,12.77
2023-05-13T20:44:54.210Z,13.04
2023-05-13T20:47:22.796Z,13.08
2023-05-13T20:49:51.647Z,13.08
2023-05-13T20:52:20.507Z,13.08
2023-05-13T20:54:49.496Z,13.08
2023-05-13T20:57:19.352Z,12.58
2023-05-13T20:59:47.811Z,13.17
2023-05-13T21:02:16.412Z,13.17
2023-05-13T21:04:44.989Z,12.97
2023-05-13T21:07:13.721Z,13.16
2023-05-13T21:09:44.608Z,13.17
2023-05-13T21:12:13.322Z,13.19
2023-05-13T21:14:43.183Z,13.27
2023-05-13T21:17:12.330Z,13.30
2023-05-13T21:19:40.933Z,13.13
2023-05-13T21:22:09.606Z,13.26
2023-05-13T21:24:38.301Z,13.30
2023-05-13T21:27:07.157Z,13.35
2023-05-13T21:29:35.941Z,13.34
2023-05-13T21:32:06.640Z,12.80
2023-05-13T21:34:37.362Z,13.33
2023-05-13T21:37:06.065Z,13.24
2023-05-13T21:40:00.236Z,13.05
2023-05-13T21:42:28.664Z,13.30
2023-05-13T21:44:58.224Z,13.16
2023-05-13T21:47:29.565Z,13.05
2023-05-13T21:49:58.438Z,13.32
2023-05-13T21:52:27.195Z,13.33
2023-05-13T21:54:55.942Z,13.35
2023-05-13T21:57:24.810Z,13.38
2023-05-13T21:59:53.303Z,12.78
2023-05-13T22:02:21.780Z,13.29
2023-05-13T22:04:51.593Z,13.38
2023-05-13T22:07:20.391Z,13.38
2023-05-13T22:09:50.370Z,13.38
2023-05-13T22:12:18.980Z,13.37
2023-05-13T22:14:47.641Z,13.36
2023-05-13T22:17:16.389Z,13.34
2023-05-13T22:19:45.017Z,13.32
2023-05-13T22:22:14.902Z,13.32
2023-05-13T22:24:43.373Z,13.33
2023-05-13T22:27:12.110Z,13.34
2023-05-13T22:29:40.939Z,13.35
2023-05-13T22:32:10.082Z,13.33
2023-05-13T22:34:38.932Z,13.35
2023-05-13T22:37:07.478Z,13.37
2023-05-13T22:39:37.253Z,13.38
2023-05-13T22:42:06.166Z,13.37
2023-05-13T22:44:34.685Z,13.36
2023-05-13T22:47:03.116Z,13.36
2023-05-13T22:49:31.478Z,13.34
2023-05-13T22:51:59.919Z,13.29
2023-05-13T22:54:29.200Z,13.23
2023-05-13T22:56:59.236Z,13.23
2023-05-13T22:59:28.078Z,13.18
2023-05-13T23:01:56.856Z,13.14
2023-05-13T23:04:25.583Z,13.11
2023-05-13T23:06:54.336Z,13.05
2023-05-13T23:09:23.057Z,13.01
2023-05-13T23:11:51.785Z,12.96
2023-05-13T23:14:21.552Z,12.95
2023-05-13T23:16:50.010Z,12.94
2023-05-13T23:19:18.410Z,12.92
2023-05-13T23:21:47.096Z,12.90
2023-05-13T23:24:15.460Z,12.88
2023-05-13T23:26:47.050Z,12.90
2023-05-13T23:29:15.949Z,12.23
2023-05-13T23:31:45.912Z,12.94
2023-05-13T23:34:14.678Z,12.95
2023-05-13T23:36:43.140Z,12.94
2023-05-13T23:39:11.798Z,12.93
2023-05-13T23:41:40.596Z,12.93
2023-05-13T23:44:09.097Z,12.90
2023-05-13T23:46:37.476Z,12.83
2023-05-13T23:49:07.230Z,12.77
2023-05-13T23:51:36.467Z,12.71
2023-05-13T23:54:05.135Z,12.55
2023-05-13T23:56:33.977Z,12.61
2023-05-13T23:59:02.805Z,12.51
